createdAt,value
2022-09-12T00:07:47.660Z,93.6
2022-09-12T00:13:50.157Z,94.5
2022-09-12T00:19:56.075Z,93.1
2022-09-12T00:26:02.154Z,93.9
2022-09-12T00:44:44.004Z,94.1
2022-09-12T00:50:42.349Z,96.5
2022-09-12T00:56:45.519Z,94.6
2022-09-12T01:02:47.209Z,93.5
2022-09-12T01:08:55.813Z,96
2022-09-12T01:40:30.775Z,93.9
2022-09-12T01:46:51.695Z,98.4
2022-09-12T01:53:00.067Z,96
2022-09-12T01:59:14.543Z,94.8
2022-09-12T02:05:47.404Z,97.3
2022-09-12T02:12:11.968Z,97.4
2022-09-12T02:18:40.648Z,97.3
2022-09-12T02:38:26.032Z,95.9
2022-09-12T02:44:15.376Z,98
2022-09-12T02:50:07.649Z,97.1
2022-09-12T02:55:59.341Z,97
2022-09-12T03:01:49.820Z,97.3
2022-09-12T03:07:40.795Z,97.8
2022-09-12T03:13:32.001Z,97.4
2022-09-12T03:19:20.833Z,97
2022-09-12T03:25:11.374Z,98.4
2022-09-12T03:31:02.601Z,96.1
2022-09-12T03:36:52.957Z,97.8
2022-09-12T03:42:43.843Z,96.5
2022-09-12T03:48:34.905Z,97.2
2022-09-12T03:54:26.089Z,98.2
2022-09-12T04:00:21.282Z,97.6
2022-09-12T04:06:11.617Z,97.7
2022-09-12T04:12:02.763Z,98.5
2022-09-12T04:17:53.757Z,100
2022-09-12T04:23:49.148Z,100
2022-09-12T04:29:39.597Z,100
2022-09-12T04:35:30.577Z,100
2022-09-12T04:41:21.902Z,100
2022-09-12T04:47:13.595Z,100
2022-09-12T04:53:04.122Z,100
2022-09-12T04:58:53.732Z,100
2022-09-12T05:04:45.628Z,100
2022-09-12T05:10:36.555Z,100
2022-09-12T05:16:28.680Z,100
2022-09-12T05:22:19.339Z,100
2022-09-12T05:28:10.886Z,100
2022-09-12T05:34:01.624Z,100
2022-09-12T05:39:53.023Z,100
2022-09-12T05:45:44.178Z,100
2022-09-12T05:51:35.890Z,100
2022-09-12T05:57:27.435Z,100
2022-09-12T06:03:18.111Z,100
2022-09-12T06:09:09.424Z,100
2022-09-12T06:15:00.077Z,100
2022-09-12T06:20:54.060Z,100
2022-09-12T06:26:45.008Z,100
2022-09-12T06:32:37.255Z,100
2022-09-12T06:38:27.667Z,100
2022-09-12T06:44:18.179Z,100
2022-09-12T06:50:09.187Z,100
2022-09-12T06:56:00.126Z,100
2022-09-12T07:01:51.991Z,100
2022-09-12T07:07:43.864Z,100
2022-09-12T07:13:34.032Z,100
2022-09-12T07:19:24.492Z,100
2022-09-12T07:25:15.697Z,100
2022-09-12T07:31:06.521Z,100
2022-09-12T07:36:58.035Z,99.9
2022-09-12T07:42:49.343Z,98.9
2022-09-12T07:48:41.702Z,97.2
2022-09-12T07:54:33.045Z,96.6
2022-09-12T08:00:23.509Z,96.9
2022-09-12T08:06:14.605Z,95.5
2022-09-12T08:12:06.019Z,94.5
2022-09-12T08:17:56.979Z,92.4
2022-09-12T08:23:48.363Z,92.4
2022-09-12T08:29:39.211Z,91.4
2022-09-12T08:35:33.483Z,91
2022-09-12T08:41:28.529Z,88.8
2022-09-12T08:47:21.429Z,88.5
2022-09-12T08:53:19.053Z,86.5
2022-09-12T08:59:17.700Z,86.3
2022-09-12T09:05:09.703Z,84.1
2022-09-12T09:11:09.721Z,83.2
2022-09-12T09:17:01.732Z,82.7
2022-09-12T09:23:02.306Z,83
2022-09-12T09:29:11.741Z,81.4
2022-09-12T09:35:05.464Z,80.9
2022-09-12T09:41:26.722Z,80.5
2022-09-12T09:47:41.906Z,80.3
2022-09-12T10:32:16.703Z,71.2
2022-09-12T10:38:32.357Z,72
2022-09-12T10:44:35.889Z,70.1
2022-09-12T10:50:35.278Z,69.8
2022-09-12T10:56:57.994Z,70
2022-09-12T11:03:04.070Z,68.4
2022-09-12T11:09:38.362Z,68.7
2022-09-12T11:36:02.756Z,64
2022-09-12T11:55:00.981Z,61.5
2022-09-12T12:32:13.985Z,58.3
2022-09-12T12:45:10.427Z,58.1
2022-09-12T12:51:20.578Z,56.8
2022-09-12T12:57:46.241Z,58
2022-09-12T13:04:10.551Z,57
2022-09-12T13:10:07.777Z,55.4
2022-09-12T13:16:18.422Z,56.9
2022-09-12T13:22:13.591Z,55.7
2022-09-12T13:28:12.097Z,55.9
2022-09-12T13:34:29.285Z,55.2
2022-09-12T13:40:40.985Z,54.9
2022-09-12T13:46:32.152Z,55.3
2022-09-12T13:52:29.406Z,54.2
2022-09-12T14:05:12.269Z,53.7
2022-09-12T14:11:13.925Z,52.5
2022-09-12T14:17:07.604Z,52.4
2022-09-12T14:29:54.209Z,51.2
2022-09-12T14:36:00.859Z,51.5
2022-09-12T14:41:50.553Z,50.5
2022-09-12T14:47:44.003Z,49.6
2022-09-12T14:53:34.588Z,49.2
2022-09-12T14:59:24.440Z,48.6
2022-09-12T15:05:14.784Z,47.6
2022-09-12T15:11:05.228Z,45.4
2022-09-12T15:16:55.882Z,46.5
2022-09-12T15:22:49.613Z,45.9
2022-09-12T15:28:39.110Z,46.4
2022-09-12T15:34:30.749Z,46.1
2022-09-12T15:40:20.461Z,45.9
2022-09-12T15:46:11.874Z,47.5
2022-09-12T15:52:02.326Z,46.8
2022-09-12T15:57:52.758Z,46.6
2022-09-12T16:03:43.754Z,45.8
2022-09-12T16:09:36.487Z,46.2
2022-09-12T16:15:30.587Z,46.9
2022-09-12T16:21:21.219Z,46.9
2022-09-12T16:27:11.769Z,44.9
2022-09-12T16:33:02.059Z,46.9
2022-09-12T16:38:52.129Z,47.8
2022-09-12T16:44:42.791Z,47.6
2022-09-12T16:50:35.652Z,49.2
2022-09-12T16:56:43.942Z,48.8
2022-09-12T17:02:35.116Z,48.9
2022-09-12T17:08:26.629Z,49
2022-09-12T17:14:18.036Z,49.1
2022-09-12T17:20:08.770Z,49.6
2022-09-12T17:26:00.255Z,50.8
2022-09-12T17:31:55.249Z,51
2022-09-12T17:37:47.335Z,52.2
2022-09-12T17:43:37.933Z,53.4
2022-09-12T17:49:30.877Z,54.8
2022-09-12T17:55:22.512Z,55.5
2022-09-12T18:01:14.345Z,55.8
2022-09-12T18:07:07.951Z,56.5
2022-09-12T18:12:58.588Z,56.7
2022-09-12T18:18:49.627Z,56.4
2022-09-12T18:24:40.226Z,56.6
2022-09-12T18:30:31.516Z,57.4
2022-09-12T18:36:22.966Z,57.7
2022-09-12T18:42:13.132Z,57.9
2022-09-12T18:48:08.123Z,59.4
2022-09-12T18:53:58.221Z,59
2022-09-12T19:00:16.592Z,59.4
2022-09-12T19:06:09.303Z,60.3
2022-09-12T19:18:37.238Z,61.2
2022-09-12T19:38:04.143Z,62.4
2022-09-12T19:51:10.638Z,63.4
2022-09-12T20:30:29.048Z,66.6
2022-09-12T20:36:58.034Z,67.2
2022-09-12T20:56:48.625Z,70.3
2022-09-12T21:02:38.956Z,70.6
2022-09-12T21:08:36.271Z,71
2022-09-12T21:14:53.567Z,72.9
2022-09-12T21:20:50.604Z,74.4
2022-09-12T21:33:23.960Z,74.4
2022-09-12T21:39:40.890Z,75.7
2022-09-12T22:18:06.338Z,76.5
2022-09-12T22:38:14.012Z,74.9
2022-09-12T22:44:06.900Z,75.2
2022-09-12T22:50:23.176Z,74.8
2022-09-12T22:56:18.122Z,77.1
2022-09-12T23:02:19.191Z,76.9
2022-09-12T23:08:17.946Z,77.2
2022-09-12T23:14:08.977Z,80.9
2022-09-12T23:20:01.096Z,80.2
2022-09-12T23:25:52.720Z,80.9
2022-09-12T23:31:44.765Z,81.3
2022-09-12T23:37:37.026Z,81
2022-09-12T23:43:29.098Z,82.2
2022-09-12T23:49:21.894Z,83.3
2022-09-12T23:55:15.138Z,84.2
